Bozeman, Montana
Current Conditions -  °F | °C
As of 10:56 PM on Wednesday 22 Oct 2014 (Local Time) from KBZN Reporting Station
Clear Clear  
Wind Chill: 25°   Ceiling: Unl
Heat Index: 32°   Visibility: 10mi
Dew Point: 28°   Wind: 8mph
Humidity: 85%   Direction: 130°SE
Pressure: 30.04"   Gusts: NA
Location:  45.68°N, 111.03°W
Report Text: KBZN 230456Z 13007KT 10SM CLR 00/M02 A3004 RMK AO2 SLP184 T00001022
Loading
Personal Weather Stations






























Interactive Weather Map
Tropical Storm Tracking
New forecast layout! Learn more

10-Day Weather Forecast

Advertisements
Track Severe Weather on mobile